createdAt,value
2023-02-09T00:01:27.377Z,99.90
2023-02-09T00:03:54.500Z,99.90
2023-02-09T00:06:23.685Z,99.90
2023-02-09T00:08:50.719Z,99.90
2023-02-09T00:11:46.832Z,99.90
2023-02-09T00:14:15.968Z,99.90
2023-02-09T00:16:43.027Z,99.90
2023-02-09T00:19:10.681Z,99.90
2023-02-09T00:21:37.529Z,99.90
2023-02-09T00:24:05.021Z,99.90
2023-02-09T00:26:31.985Z,99.90
2023-02-09T00:28:59.066Z,99.90
2023-02-09T00:31:26.197Z,99.90
2023-02-09T00:33:52.933Z,99.90
2023-02-09T00:36:19.950Z,99.90
2023-02-09T00:38:48.275Z,99.90
2023-02-09T00:41:16.564Z,99.90
2023-02-09T00:43:43.348Z,99.90
2023-02-09T00:46:10.215Z,99.90
2023-02-09T00:48:36.951Z,99.90
2023-02-09T00:51:03.799Z,99.90
2023-02-09T00:53:30.451Z,99.90
2023-02-09T00:55:57.145Z,99.90
2023-02-09T00:58:23.834Z,99.90
2023-02-09T01:00:50.713Z,99.90
2023-02-09T01:03:17.523Z,99.90
2023-02-09T01:05:44.283Z,99.90
2023-02-09T01:08:11.625Z,99.90
2023-02-09T01:10:39.466Z,99.90
2023-02-09T01:13:06.228Z,99.90
2023-02-09T01:15:32.921Z,99.90
2023-02-09T01:17:59.793Z,99.90
2023-02-09T01:20:27.413Z,99.90
2023-02-09T01:22:54.103Z,99.90
2023-02-09T01:25:20.898Z,99.90
2023-02-09T01:27:48.211Z,99.90
2023-02-09T01:30:15.521Z,99.90
2023-02-09T01:32:42.374Z,99.90
2023-02-09T01:35:09.600Z,99.90
2023-02-09T01:37:37.607Z,99.90
2023-02-09T01:40:05.896Z,99.90
2023-02-09T01:42:32.638Z,99.90
2023-02-09T01:45:18.944Z,99.90
2023-02-09T01:47:51.863Z,99.90
2023-02-09T01:50:18.964Z,99.90
2023-02-09T01:52:48.729Z,99.90
2023-02-09T01:55:20.465Z,99.90
2023-02-09T01:57:59.384Z,99.90
2023-02-09T02:00:27.012Z,99.90
2023-02-09T02:02:57.569Z,99.90
2023-02-09T02:05:25.260Z,99.90
2023-02-09T02:08:10.410Z,99.90
2023-02-09T02:10:37.407Z,99.90
2023-02-09T02:13:04.136Z,99.90
2023-02-09T02:15:58.767Z,99.90
2023-02-09T02:18:47.650Z,99.90
2023-02-09T02:21:48.631Z,99.90
2023-02-09T02:24:52.804Z,99.90
2023-02-09T02:27:53.802Z,99.90
2023-02-09T02:30:57.658Z,99.90
2023-02-09T02:33:31.794Z,99.90
2023-02-09T02:36:08.136Z,99.90
2023-02-09T02:38:41.055Z,99.90
2023-02-09T02:41:57.174Z,99.90
2023-02-09T02:44:27.570Z,99.90
2023-02-09T02:47:00.019Z,99.90
2023-02-09T02:49:49.550Z,99.90
2023-02-09T02:52:16.290Z,99.90
2023-02-09T02:54:49.855Z,99.90
2023-02-09T02:57:26.361Z,99.90
2023-02-09T03:00:08.613Z,99.90
2023-02-09T03:02:41.028Z,99.90
2023-02-09T03:05:09.079Z,99.90
2023-02-09T03:07:35.808Z,99.90
2023-02-09T03:10:03.436Z,99.90
2023-02-09T03:12:48.819Z,99.90
2023-02-09T03:15:32.210Z,99.90
2023-02-09T03:18:12.052Z,99.90
2023-02-09T03:20:56.779Z,99.90
2023-02-09T03:23:53.850Z,99.90
2023-02-09T03:26:30.661Z,99.90
2023-02-09T03:28:58.742Z,99.90
2023-02-09T03:31:27.305Z,99.90
2023-02-09T03:33:57.162Z,99.90
2023-02-09T03:36:24.912Z,99.90
2023-02-09T03:38:51.574Z,99.90
2023-02-09T03:41:18.216Z,99.90
2023-02-09T03:44:03.599Z,99.90
2023-02-09T03:46:30.315Z,99.90
2023-02-09T03:48:56.959Z,99.90
2023-02-09T03:51:23.901Z,99.90
2023-02-09T03:53:50.612Z,99.90
2023-02-09T03:56:17.294Z,99.90
2023-02-09T03:58:44.220Z,99.90
2023-02-09T04:01:11.458Z,99.90
2023-02-09T04:03:39.776Z,99.90
2023-02-09T04:06:06.561Z,99.90
2023-02-09T04:08:33.693Z,99.90
2023-02-09T04:11:00.633Z,99.90
2023-02-09T04:13:27.348Z,99.90
2023-02-09T04:15:54.394Z,99.90
2023-02-09T04:18:21.162Z,99.90
2023-02-09T04:20:48.319Z,99.90
2023-02-09T04:23:15.264Z,99.90
2023-02-09T04:25:42.061Z,99.90
2023-02-09T04:28:08.798Z,99.90
2023-02-09T04:30:35.506Z,99.90
2023-02-09T04:33:02.235Z,99.90
2023-02-09T04:35:28.910Z,99.90
2023-02-09T04:37:55.566Z,99.90
2023-02-09T04:40:22.240Z,99.90
2023-02-09T04:42:48.915Z,99.90
2023-02-09T04:45:15.604Z,99.90
2023-02-09T04:47:42.324Z,99.90
2023-02-09T04:50:09.234Z,99.90
2023-02-09T04:52:35.910Z,99.90
2023-02-09T04:55:02.708Z,99.90
2023-02-09T04:57:52.303Z,99.90
2023-02-09T05:00:19.206Z,99.90
2023-02-09T05:02:45.839Z,99.90
2023-02-09T05:05:12.507Z,99.90
2023-02-09T05:07:39.129Z,99.90
2023-02-09T05:10:06.393Z,99.90
2023-02-09T05:12:33.085Z,99.90
2023-02-09T05:14:59.783Z,99.90
2023-02-09T05:17:26.429Z,99.90
2023-02-09T05:19:53.162Z,99.90
2023-02-09T05:22:19.927Z,99.90
2023-02-09T05:24:46.557Z,99.90
2023-02-09T05:27:13.233Z,99.90
2023-02-09T05:29:39.879Z,99.90
2023-02-09T05:32:06.657Z,99.90
2023-02-09T05:34:33.315Z,99.90
2023-02-09T05:36:59.980Z,99.90
2023-02-09T05:39:26.603Z,99.90
2023-02-09T05:42:12.131Z,99.90
2023-02-09T05:44:38.854Z,99.90
2023-02-09T05:47:05.631Z,99.90
2023-02-09T05:49:32.317Z,99.90
2023-02-09T05:51:58.977Z,99.90
2023-02-09T05:54:26.124Z,99.90
2023-02-09T05:56:52.762Z,99.90
2023-02-09T05:59:19.602Z,99.90
2023-02-09T06:01:46.600Z,99.90
2023-02-09T06:04:13.283Z,99.90
2023-02-09T06:06:39.952Z,99.90
2023-02-09T06:09:06.823Z,99.90
2023-02-09T06:11:33.529Z,99.90
2023-02-09T06:14:00.228Z,99.90
2023-02-09T06:16:27.552Z,99.90
2023-02-09T06:18:54.274Z,99.90
2023-02-09T06:21:20.959Z,99.90
2023-02-09T06:23:47.972Z,99.90
2023-02-09T06:26:16.815Z,99.90
2023-02-09T06:28:44.244Z,99.90
2023-02-09T06:31:11.458Z,99.90
2023-02-09T06:33:39.078Z,99.90
2023-02-09T06:36:07.480Z,99.90
2023-02-09T06:38:35.735Z,99.90
2023-02-09T06:41:02.775Z,99.90
2023-02-09T06:43:29.582Z,99.90
2023-02-09T06:45:56.884Z,99.90
2023-02-09T06:48:23.651Z,99.90
2023-02-09T06:50:50.386Z,99.90
2023-02-09T06:53:18.529Z,99.90
2023-02-09T06:55:45.290Z,99.90
2023-02-09T06:58:11.999Z,99.90
2023-02-09T07:00:38.644Z,99.90
2023-02-09T07:03:05.517Z,99.90
2023-02-09T07:05:32.279Z,99.90
2023-02-09T07:07:59.233Z,99.90
2023-02-09T07:10:26.530Z,99.90
2023-02-09T07:12:53.362Z,99.90
2023-02-09T07:15:20.090Z,99.90
2023-02-09T07:17:46.840Z,99.90
2023-02-09T07:20:13.807Z,99.90
2023-02-09T07:22:41.048Z,99.90
2023-02-09T07:25:08.122Z,99.90
2023-02-09T07:27:34.898Z,99.90
2023-02-09T07:30:01.613Z,99.90
2023-02-09T07:32:28.378Z,99.90
2023-02-09T07:34:55.162Z,99.90
2023-02-09T07:37:21.900Z,99.90
2023-02-09T07:39:48.888Z,99.90
2023-02-09T07:42:15.628Z,99.90
2023-02-09T07:44:51.183Z,99.90
2023-02-09T07:47:17.841Z,99.90
2023-02-09T07:49:44.484Z,99.90
2023-02-09T07:52:11.479Z,99.90
2023-02-09T07:54:38.143Z,99.90
2023-02-09T07:57:04.833Z,99.90
2023-02-09T07:59:31.444Z,99.90
2023-02-09T08:01:58.657Z,99.90
2023-02-09T08:04:25.360Z,99.90
2023-02-09T08:06:53.172Z,99.90
2023-02-09T08:09:19.798Z,99.90
2023-02-09T08:11:51.823Z,99.90
2023-02-09T08:14:23.642Z,99.90
2023-02-09T08:16:52.308Z,99.90
2023-02-09T08:19:22.919Z,99.90
2023-02-09T08:21:50.070Z,99.90
2023-02-09T08:24:20.415Z,99.90
2023-02-09T08:26:47.133Z,99.90
2023-02-09T08:29:13.820Z,99.90
2023-02-09T08:31:40.796Z,99.90
2023-02-09T08:34:08.083Z,99.90
2023-02-09T08:36:37.566Z,99.90
2023-02-09T08:39:05.255Z,99.90
2023-02-09T08:41:31.908Z,99.90
2023-02-09T08:43:58.598Z,96.40
2023-02-09T08:46:25.582Z,96.80
2023-02-09T08:48:52.904Z,97.80
2023-02-09T08:51:19.768Z,97.00
2023-02-09T08:53:52.190Z,93.50
2023-02-09T08:56:20.423Z,90.60
2023-02-09T08:58:47.742Z,91.80
2023-02-09T09:01:14.806Z,91.60
2023-02-09T09:03:42.197Z,90.80
2023-02-09T09:06:11.520Z,90.30
2023-02-09T09:08:39.955Z,90.90
2023-02-09T09:11:10.089Z,90.70
2023-02-09T09:13:36.764Z,90.30
2023-02-09T09:16:05.186Z,89.70
2023-02-09T09:18:32.143Z,90.20
2023-02-09T09:20:58.784Z,89.20
2023-02-09T09:23:25.441Z,88.30
2023-02-09T09:25:52.178Z,87.60
2023-02-09T09:28:18.987Z,83.30
2023-02-09T09:30:45.775Z,82.00
2023-02-09T09:33:12.558Z,80.00
2023-02-09T09:35:39.180Z,78.70
2023-02-09T09:38:05.873Z,77.80
2023-02-09T09:40:36.947Z,80.00
2023-02-09T09:43:08.689Z,80.60
2023-02-09T09:45:38.581Z,78.80
2023-02-09T09:48:18.261Z,77.70
2023-02-09T09:50:46.263Z,76.80
2023-02-09T09:53:31.675Z,76.40
2023-02-09T09:56:02.678Z,75.70
2023-02-09T09:58:31.127Z,72.50
2023-02-09T10:00:58.056Z,73.60
2023-02-09T10:03:25.213Z,72.70
2023-02-09T10:05:55.542Z,72.20
2023-02-09T10:08:42.055Z,72.30
2023-02-09T10:11:13.142Z,70.80
2023-02-09T10:13:44.486Z,69.50
2023-02-09T10:16:37.997Z,67.80
2023-02-09T10:19:19.632Z,69.40
2023-02-09T10:21:46.819Z,66.40
2023-02-09T10:24:20.815Z,66.00
2023-02-09T10:27:08.091Z,65.50
2023-02-09T10:29:35.643Z,66.40
2023-02-09T10:32:11.190Z,66.20
2023-02-09T10:34:37.826Z,65.80
2023-02-09T10:37:32.357Z,66.40
2023-02-09T10:40:15.730Z,63.80
2023-02-09T10:43:02.623Z,61.80
2023-02-09T10:45:33.061Z,65.40
2023-02-09T10:48:18.810Z,64.30
2023-02-09T10:50:58.639Z,64.30
2023-02-09T10:53:29.720Z,61.80
2023-02-09T10:56:06.659Z,63.20
2023-02-09T10:58:36.396Z,62.30
2023-02-09T11:01:09.433Z,63.60
2023-02-09T11:03:45.868Z,64.10
2023-02-09T11:06:19.919Z,63.80
2023-02-09T11:08:57.705Z,62.90
2023-02-09T11:11:31.385Z,61.00
2023-02-09T11:13:58.890Z,61.40
2023-02-09T11:16:47.253Z,61.50
2023-02-09T11:19:22.410Z,60.70
2023-02-09T11:21:54.742Z,60.60
2023-02-09T11:24:40.062Z,57.60
2023-02-09T11:27:23.789Z,59.40
2023-02-09T11:30:04.865Z,54.80
2023-02-09T11:32:44.055Z,56.20
2023-02-09T11:35:13.257Z,56.30
2023-02-09T11:38:01.516Z,56.90
2023-02-09T11:40:50.827Z,57.60
2023-02-09T11:43:19.822Z,57.80
2023-02-09T11:45:51.358Z,55.40
2023-02-09T11:48:30.108Z,57.60
2023-02-09T11:51:08.033Z,56.10
2023-02-09T11:53:52.926Z,57.90
2023-02-09T11:56:22.942Z,57.90
2023-02-09T11:59:14.265Z,57.20
2023-02-09T12:02:04.633Z,55.70
2023-02-09T12:04:47.224Z,56.30
2023-02-09T12:07:33.243Z,55.50
2023-02-09T12:10:22.048Z,55.00
2023-02-09T12:12:51.345Z,55.90
2023-02-09T12:15:37.306Z,55.10
2023-02-09T12:18:13.886Z,55.40
2023-02-09T12:20:40.531Z,54.90
2023-02-09T12:23:33.351Z,55.40
2023-02-09T12:26:11.776Z,56.10
2023-02-09T12:28:40.490Z,55.20
2023-02-09T12:31:14.862Z,54.10
2023-02-09T12:33:47.807Z,53.90
2023-02-09T12:36:14.423Z,54.70
2023-02-09T12:38:54.684Z,58.30
2023-02-09T12:41:49.391Z,55.30
2023-02-09T12:44:16.404Z,54.60
2023-02-09T12:46:48.581Z,55.20
2023-02-09T12:49:15.809Z,55.00
2023-02-09T12:51:54.614Z,54.90
2023-02-09T12:54:45.268Z,56.10
2023-02-09T12:57:14.759Z,54.80
2023-02-09T12:59:51.169Z,54.40
2023-02-09T13:02:50.223Z,55.20
2023-02-09T13:05:18.321Z,55.60
2023-02-09T13:07:53.226Z,55.70
2023-02-09T13:10:44.817Z,53.50
2023-02-09T13:13:11.450Z,54.40
2023-02-09T13:16:03.011Z,54.50
2023-02-09T13:18:49.303Z,54.20
2023-02-09T13:21:38.630Z,53.90
2023-02-09T13:24:12.851Z,53.40
2023-02-09T13:26:50.650Z,55.40
2023-02-09T13:29:22.151Z,54.70
2023-02-09T13:32:03.573Z,54.40
2023-02-09T13:34:39.244Z,54.40
2023-02-09T13:37:43.544Z,54.30
2023-02-09T13:40:17.857Z,53.60
2023-02-09T13:43:01.068Z,53.50
2023-02-09T13:45:28.105Z,52.80
2023-02-09T13:48:04.096Z,53.80
2023-02-09T13:50:31.903Z,53.40
2023-02-09T13:53:09.562Z,51.30
2023-02-09T13:55:39.875Z,54.00
2023-02-09T13:58:08.825Z,56.60
2023-02-09T14:00:45.197Z,53.30
2023-02-09T14:03:19.509Z,55.00
2023-02-09T14:05:54.142Z,52.00
2023-02-09T14:08:22.330Z,51.50
2023-02-09T14:11:00.735Z,51.20
2023-02-09T14:13:35.087Z,52.80
2023-02-09T14:16:07.227Z,52.70
2023-02-09T14:18:58.009Z,53.90
2023-02-09T14:21:30.922Z,55.50
2023-02-09T14:24:00.319Z,55.30
2023-02-09T14:26:35.664Z,54.40
2023-02-09T14:29:28.286Z,56.40
2023-02-09T14:32:32.059Z,55.10
2023-02-09T14:35:08.072Z,57.00
2023-02-09T14:37:37.272Z,56.50
2023-02-09T14:40:06.787Z,56.40
2023-02-09T14:42:39.194Z,57.20
2023-02-09T14:45:14.696Z,57.10
2023-02-09T14:47:43.953Z,57.50
2023-02-09T14:50:16.696Z,57.80
2023-02-09T14:52:48.059Z,57.70
2023-02-09T14:55:22.471Z,56.10
2023-02-09T14:57:49.351Z,57.00
2023-02-09T15:00:17.842Z,54.20
2023-02-09T15:02:45.624Z,55.30
2023-02-09T15:05:12.638Z,56.60
2023-02-09T15:07:46.952Z,58.60
2023-02-09T15:10:18.483Z,59.90
2023-02-09T15:12:45.378Z,61.20
2023-02-09T15:15:17.349Z,58.20
2023-02-09T15:17:44.083Z,60.00
2023-02-09T15:20:15.071Z,66.50
2023-02-09T15:22:41.860Z,69.70
2023-02-09T15:25:08.947Z,73.20
2023-02-09T15:27:41.382Z,75.70
2023-02-09T15:30:16.724Z,80.70
2023-02-09T15:32:44.597Z,88.70
2023-02-09T15:35:15.629Z,93.00
2023-02-09T15:37:45.211Z,96.80
2023-02-09T15:40:14.874Z,98.50
2023-02-09T15:43:01.186Z,99.90
2023-02-09T15:45:48.582Z,99.90
2023-02-09T15:48:15.436Z,99.90
2023-02-09T15:50:43.359Z,99.90
2023-02-09T15:53:11.904Z,99.90
2023-02-09T15:55:39.720Z,99.90
2023-02-09T15:58:14.448Z,99.90
2023-02-09T16:00:41.298Z,99.90
2023-02-09T16:03:15.677Z,99.90
2023-02-09T16:05:42.533Z,99.90
2023-02-09T16:08:16.479Z,99.90
2023-02-09T16:10:43.434Z,99.90
2023-02-09T16:13:11.635Z,99.90
2023-02-09T16:15:38.314Z,99.90
2023-02-09T16:18:04.987Z,99.90
2023-02-09T16:20:32.030Z,99.90
2023-02-09T16:23:11.696Z,99.90
2023-02-09T16:25:42.195Z,99.90
2023-02-09T16:28:13.077Z,99.90
2023-02-09T16:30:53.801Z,99.90
2023-02-09T16:33:21.983Z,99.90
2023-02-09T16:35:55.890Z,99.90
2023-02-09T16:38:24.183Z,99.90
2023-02-09T16:40:53.219Z,99.90
2023-02-09T16:43:20.423Z,99.90
2023-02-09T16:46:02.392Z,99.90
2023-02-09T16:48:32.177Z,99.90
2023-02-09T16:50:59.189Z,99.90
2023-02-09T16:53:27.022Z,99.90
2023-02-09T16:55:53.847Z,99.90
2023-02-09T16:58:20.805Z,99.90
2023-02-09T17:00:47.627Z,99.90
2023-02-09T17:03:19.725Z,99.90
2023-02-09T17:05:52.598Z,99.90
2023-02-09T17:08:28.062Z,99.90
2023-02-09T17:10:56.447Z,99.90
2023-02-09T17:13:23.496Z,99.90
2023-02-09T17:15:56.546Z,99.90
2023-02-09T17:18:27.255Z,99.90
2023-02-09T17:20:57.224Z,99.90
2023-02-09T17:23:26.319Z,99.90
2023-02-09T17:25:55.158Z,99.90
2023-02-09T17:28:26.363Z,99.90
2023-02-09T17:30:57.472Z,99.90
2023-02-09T17:33:29.735Z,99.90
2023-02-09T17:36:24.317Z,99.90
2023-02-09T17:38:45.305Z,99.90
2023-02-09T17:41:44.782Z,99.90
2023-02-09T17:44:24.196Z,99.90
2023-02-09T17:46:55.870Z,99.90
2023-02-09T17:49:23.142Z,99.90
2023-02-09T17:51:49.931Z,99.90
2023-02-09T17:54:18.642Z,99.90
2023-02-09T17:56:45.651Z,99.90
2023-02-09T17:59:13.313Z,99.90
2023-02-09T18:01:45.811Z,99.90
2023-02-09T18:04:21.921Z,99.90
2023-02-09T18:06:48.979Z,99.90
2023-02-09T18:09:15.940Z,99.90
2023-02-09T18:11:45.421Z,99.90
2023-02-09T18:14:13.483Z,99.90
2023-02-09T18:16:41.290Z,99.90
2023-02-09T18:19:11.804Z,99.90
2023-02-09T18:21:39.766Z,99.90
2023-02-09T18:24:06.923Z,99.90
2023-02-09T18:26:34.039Z,99.90
2023-02-09T18:29:00.818Z,99.90
2023-02-09T18:31:27.513Z,99.90
2023-02-09T18:33:54.196Z,99.90
2023-02-09T18:36:20.999Z,99.90
2023-02-09T18:38:49.063Z,99.90
2023-02-09T18:41:15.713Z,99.90
2023-02-09T18:43:42.379Z,99.90
2023-02-09T18:46:13.821Z,99.90
2023-02-09T18:48:40.583Z,99.90
2023-02-09T18:51:07.718Z,99.90
2023-02-09T18:53:34.397Z,99.90
2023-02-09T18:56:01.116Z,99.90
2023-02-09T18:58:27.832Z,99.90
2023-02-09T19:00:54.908Z,99.90
2023-02-09T19:03:21.739Z,99.90
2023-02-09T19:05:48.817Z,99.90
2023-02-09T19:08:16.138Z,99.90
2023-02-09T19:10:44.618Z,99.90
2023-02-09T19:13:11.645Z,99.90
2023-02-09T19:15:39.028Z,99.90
2023-02-09T19:18:06.109Z,99.90
2023-02-09T19:20:34.182Z,99.90
2023-02-09T19:23:02.380Z,99.90
2023-02-09T19:25:30.000Z,99.90
2023-02-09T19:27:56.931Z,99.90
2023-02-09T19:30:28.482Z,99.90
2023-02-09T19:33:00.037Z,99.90
2023-02-09T19:35:29.101Z,99.90
2023-02-09T19:37:57.720Z,99.90
2023-02-09T19:40:35.810Z,99.90
2023-02-09T19:43:03.903Z,99.90
2023-02-09T19:45:36.186Z,99.90
2023-02-09T19:48:05.348Z,99.90
2023-02-09T19:50:32.505Z,99.90
2023-02-09T19:52:59.292Z,99.90
2023-02-09T19:55:26.000Z,99.90
2023-02-09T19:57:52.593Z,99.90
2023-02-09T20:00:19.384Z,99.90
2023-02-09T20:02:47.270Z,99.90
2023-02-09T20:05:15.989Z,99.90
2023-02-09T20:07:43.467Z,99.90
2023-02-09T20:10:11.006Z,99.90
2023-02-09T20:12:37.681Z,99.90
2023-02-09T20:15:04.344Z,99.90
2023-02-09T20:17:31.020Z,99.90
2023-02-09T20:19:57.587Z,99.90
2023-02-09T20:22:24.273Z,99.90
2023-02-09T20:24:50.835Z,99.90
2023-02-09T20:27:18.948Z,99.90
2023-02-09T20:29:45.619Z,99.90
2023-02-09T20:32:12.327Z,99.90
2023-02-09T20:34:39.033Z,99.90
2023-02-09T20:37:05.654Z,99.90
2023-02-09T20:39:32.333Z,99.90
2023-02-09T20:42:17.863Z,99.90
2023-02-09T20:45:03.337Z,99.90
2023-02-09T20:47:30.142Z,99.90
2023-02-09T20:49:59.803Z,99.90
2023-02-09T20:52:30.418Z,99.90
2023-02-09T20:54:57.792Z,99.90
2023-02-09T20:57:29.378Z,99.90
2023-02-09T20:59:57.761Z,99.90
2023-02-09T21:02:25.259Z,99.90
2023-02-09T21:04:54.927Z,99.90
2023-02-09T21:07:21.601Z,99.90
2023-02-09T21:09:48.220Z,99.90
2023-02-09T21:12:14.998Z,99.90
2023-02-09T21:14:44.974Z,99.90
2023-02-09T21:17:12.234Z,99.90
2023-02-09T21:19:39.444Z,99.90
2023-02-09T21:22:06.538Z,99.90
2023-02-09T21:24:33.565Z,99.90
2023-02-09T21:27:03.938Z,99.90
2023-02-09T21:29:30.616Z,99.90
2023-02-09T21:32:00.196Z,99.90
2023-02-09T21:34:26.936Z,99.90
2023-02-09T21:36:53.506Z,99.90
2023-02-09T21:39:20.307Z,99.90
2023-02-09T21:42:05.875Z,99.90
2023-02-09T21:44:32.650Z,99.90
2023-02-09T21:47:00.449Z,99.90
2023-02-09T21:49:27.175Z,99.90
2023-02-09T21:51:53.883Z,99.90
2023-02-09T21:54:20.529Z,99.90
2023-02-09T21:56:47.207Z,99.90
2023-02-09T21:59:14.010Z,99.90
2023-02-09T22:01:42.408Z,99.90
2023-02-09T22:04:09.412Z,99.90
2023-02-09T22:06:36.230Z,99.90
2023-02-09T22:09:06.067Z,99.90
2023-02-09T22:11:32.796Z,99.90
2023-02-09T22:13:59.591Z,99.90
2023-02-09T22:16:26.369Z,99.90
2023-02-09T22:18:53.061Z,99.90
2023-02-09T22:21:19.899Z,99.90
2023-02-09T22:23:46.678Z,99.90
2023-02-09T22:26:14.200Z,99.90
2023-02-09T22:28:41.834Z,99.90
2023-02-09T22:31:11.469Z,99.90
2023-02-09T22:33:38.331Z,99.90
2023-02-09T22:36:06.990Z,99.90
2023-02-09T22:38:33.796Z,99.90
2023-02-09T22:41:21.088Z,99.90
2023-02-09T22:44:00.775Z,99.90
2023-02-09T22:46:36.926Z,99.90
2023-02-09T22:49:18.448Z,99.90
2023-02-09T22:51:46.352Z,99.90
2023-02-09T22:54:15.298Z,99.90
2023-02-09T22:56:42.188Z,99.90
2023-02-09T22:59:10.753Z,99.90
2023-02-09T23:01:37.472Z,99.90
2023-02-09T23:04:04.446Z,99.90
2023-02-09T23:06:31.220Z,99.90
2023-02-09T23:09:00.563Z,99.90
2023-02-09T23:11:28.984Z,99.90
2023-02-09T23:14:09.550Z,99.90
2023-02-09T23:16:38.307Z,99.90
2023-02-09T23:19:08.249Z,99.90
2023-02-09T23:21:37.948Z,99.90
2023-02-09T23:24:05.214Z,99.90
2023-02-09T23:26:32.249Z,99.90
2023-02-09T23:29:01.029Z,99.90
2023-02-09T23:31:27.863Z,99.90
2023-02-09T23:33:54.748Z,99.90
2023-02-09T23:36:26.924Z,99.90
2023-02-09T23:39:00.172Z,99.90
2023-02-09T23:41:27.744Z,99.90
2023-02-09T23:43:55.119Z,99.90
2023-02-09T23:46:28.579Z,99.90
2023-02-09T23:48:55.959Z,99.90
2023-02-09T23:51:28.485Z,99.90
2023-02-09T23:53:57.755Z,99.90
2023-02-09T23:56:25.777Z,99.90
2023-02-09T23:58:53.352Z,99.90
